sensor_id;sensor_type;location;lat;lon;timestamp;P1;durP1;ratioP1;P2;durP2;ratioP2
2404;SDS011;1213;43.206;27.922;2023-04-30T00:01:45;15.13;;;9.83;;
2404;SDS011;1213;43.206;27.922;2023-04-30T00:04:11;13.07;;;8.27;;
2404;SDS011;1213;43.206;27.922;2023-04-30T00:06:36;13.50;;;8.80;;
2404;SDS011;1213;43.206;27.922;2023-04-30T00:09:01;6.40;;;5.80;;
2404;SDS011;1213;43.206;27.922;2023-04-30T00:11:27;17.03;;;9.40;;
2404;SDS011;1213;43.206;27.922;2023-04-30T00:13:52;16.50;;;9.40;;
2404;SDS011;1213;43.206;27.922;2023-04-30T00:16:18;13.47;;;9.37;;
2404;SDS011;1213;43.206;27.922;2023-04-30T00:18:43;11.40;;;8.50;;
2404;SDS011;1213;43.206;27.922;2023-04-30T00:21:08;13.60;;;9.83;;
2404;SDS011;1213;43.206;27.922;2023-04-30T00:23:33;12.20;;;9.57;;
2404;SDS011;1213;43.206;27.922;2023-04-30T00:25:59;13.33;;;9.40;;
2404;SDS011;1213;43.206;27.922;2023-04-30T00:28:25;13.73;;;8.40;;
2404;SDS011;1213;43.206;27.922;2023-04-30T00:30:50;15.50;;;9.20;;
2404;SDS011;1213;43.206;27.922;2023-04-30T00:33:15;12.43;;;8.07;;
2404;SDS011;1213;43.206;27.922;2023-04-30T00:35:41;14.70;;;9.10;;
2404;SDS011;1213;43.206;27.922;2023-04-30T00:38:06;12.10;;;7.83;;
2404;SDS011;1213;43.206;27.922;2023-04-30T00:40:33;16.03;;;8.97;;
2404;SDS011;1213;43.206;27.922;2023-04-30T00:42:58;10.40;;;7.07;;
2404;SDS011;1213;43.206;27.922;2023-04-30T00:45:23;12.13;;;8.17;;
2404;SDS011;1213;43.206;27.922;2023-04-30T00:47:49;13.87;;;8.40;;
2404;SDS011;1213;43.206;27.922;2023-04-30T00:50:14;11.90;;;8.07;;
2404;SDS011;1213;43.206;27.922;2023-04-30T00:52:43;16.80;;;8.03;;
2404;SDS011;1213;43.206;27.922;2023-04-30T00:55:13;11.63;;;7.80;;
2404;SDS011;1213;43.206;27.922;2023-04-30T00:57:38;18.00;;;7.40;;
2404;SDS011;1213;43.206;27.922;2023-04-30T01:00:05;12.97;;;8.67;;
2404;SDS011;1213;43.206;27.922;2023-04-30T01:02:33;10.13;;;8.37;;
2404;SDS011;1213;43.206;27.922;2023-04-30T01:04:59;10.33;;;7.60;;
2404;SDS011;1213;43.206;27.922;2023-04-30T01:07:25;14.50;;;7.30;;
2404;SDS011;1213;43.206;27.922;2023-04-30T01:09:52;9.00;;;6.07;;
2404;SDS011;1213;43.206;27.922;2023-04-30T01:19:45;9.67;;;6.70;;
2404;SDS011;1213;43.206;27.922;2023-04-30T01:22:13;15.37;;;8.63;;
2404;SDS011;1213;43.206;27.922;2023-04-30T01:27:12;13.23;;;6.60;;
2404;SDS011;1213;43.206;27.922;2023-04-30T01:29:40;17.47;;;7.50;;
2404;SDS011;1213;43.206;27.922;2023-04-30T01:32:06;11.20;;;7.80;;
2404;SDS011;1213;43.206;27.922;2023-04-30T01:34:31;12.77;;;7.20;;
2404;SDS011;1213;43.206;27.922;2023-04-30T01:42:19;12.63;;;8.50;;
2404;SDS011;1213;43.206;27.922;2023-04-30T01:50:08;8.63;;;6.97;;
2404;SDS011;1213;43.206;27.922;2023-04-30T01:52:44;16.87;;;7.10;;
2404;SDS011;1213;43.206;27.922;2023-04-30T01:55:11;9.50;;;7.57;;
2404;SDS011;1213;43.206;27.922;2023-04-30T01:57:39;10.53;;;7.20;;
2404;SDS011;1213;43.206;27.922;2023-04-30T02:00:06;9.30;;;6.33;;
2404;SDS011;1213;43.206;27.922;2023-04-30T02:02:34;8.80;;;6.20;;
2404;SDS011;1213;43.206;27.922;2023-04-30T02:05:00;13.93;;;7.77;;
2404;SDS011;1213;43.206;27.922;2023-04-30T02:07:41;12.20;;;7.37;;
2404;SDS011;1213;43.206;27.922;2023-04-30T02:10:08;10.07;;;6.30;;
2404;SDS011;1213;43.206;27.922;2023-04-30T02:12:33;18.63;;;8.50;;
2404;SDS011;1213;43.206;27.922;2023-04-30T02:14:59;11.97;;;8.17;;
2404;SDS011;1213;43.206;27.922;2023-04-30T02:17:24;10.50;;;7.17;;
2404;SDS011;1213;43.206;27.922;2023-04-30T02:19:50;10.90;;;6.63;;
2404;SDS011;1213;43.206;27.922;2023-04-30T02:22:15;11.93;;;7.77;;
2404;SDS011;1213;43.206;27.922;2023-04-30T02:24:40;13.13;;;7.33;;
2404;SDS011;1213;43.206;27.922;2023-04-30T02:27:05;10.83;;;7.40;;
2404;SDS011;1213;43.206;27.922;2023-04-30T02:29:31;13.30;;;6.83;;
2404;SDS011;1213;43.206;27.922;2023-04-30T02:31:57;10.80;;;8.17;;
2404;SDS011;1213;43.206;27.922;2023-04-30T02:34:22;12.40;;;8.03;;
2404;SDS011;1213;43.206;27.922;2023-04-30T02:36:48;13.53;;;9.00;;
2404;SDS011;1213;43.206;27.922;2023-04-30T02:39:13;17.17;;;7.30;;
2404;SDS011;1213;43.206;27.922;2023-04-30T02:41:38;10.47;;;6.13;;
2404;SDS011;1213;43.206;27.922;2023-04-30T02:44:04;13.80;;;8.20;;
2404;SDS011;1213;43.206;27.922;2023-04-30T02:46:29;14.00;;;7.60;;
2404;SDS011;1213;43.206;27.922;2023-04-30T02:48:54;9.77;;;7.70;;
2404;SDS011;1213;43.206;27.922;2023-04-30T02:51:19;17.33;;;7.60;;
2404;SDS011;1213;43.206;27.922;2023-04-30T02:53:45;21.60;;;7.90;;
2404;SDS011;1213;43.206;27.922;2023-04-30T02:56:10;14.80;;;8.70;;
2404;SDS011;1213;43.206;27.922;2023-04-30T02:58:39;13.97;;;8.83;;
2404;SDS011;1213;43.206;27.922;2023-04-30T03:01:05;14.43;;;7.60;;
2404;SDS011;1213;43.206;27.922;2023-04-30T03:03:30;12.80;;;8.67;;
2404;SDS011;1213;43.206;27.922;2023-04-30T03:05:55;10.77;;;7.40;;
2404;SDS011;1213;43.206;27.922;2023-04-30T03:08:23;9.50;;;7.73;;
2404;SDS011;1213;43.206;27.922;2023-04-30T03:10:48;11.17;;;6.67;;
2404;SDS011;1213;43.206;27.922;2023-04-30T03:13:13;17.93;;;9.10;;
2404;SDS011;1213;43.206;27.922;2023-04-30T03:15:40;9.73;;;8.27;;
2404;SDS011;1213;43.206;27.922;2023-04-30T03:18:06;11.40;;;7.60;;
2404;SDS011;1213;43.206;27.922;2023-04-30T03:20:31;11.70;;;7.57;;
2404;SDS011;1213;43.206;27.922;2023-04-30T03:22:56;11.70;;;8.10;;
2404;SDS011;1213;43.206;27.922;2023-04-30T03:25:21;13.00;;;9.27;;
2404;SDS011;1213;43.206;27.922;2023-04-30T03:27:47;14.30;;;8.50;;
2404;SDS011;1213;43.206;27.922;2023-04-30T03:30:12;11.43;;;7.77;;
2404;SDS011;1213;43.206;27.922;2023-04-30T03:32:37;17.00;;;8.67;;
2404;SDS011;1213;43.206;27.922;2023-04-30T03:35:03;10.77;;;7.03;;
2404;SDS011;1213;43.206;27.922;2023-04-30T03:37:28;15.10;;;8.43;;
2404;SDS011;1213;43.206;27.922;2023-04-30T03:39:53;11.97;;;8.30;;
2404;SDS011;1213;43.206;27.922;2023-04-30T03:42:19;11.53;;;8.60;;
2404;SDS011;1213;43.206;27.922;2023-04-30T03:44:45;13.13;;;8.93;;
2404;SDS011;1213;43.206;27.922;2023-04-30T03:47:10;7.70;;;6.53;;
2404;SDS011;1213;43.206;27.922;2023-04-30T03:49:36;13.53;;;8.47;;
2404;SDS011;1213;43.206;27.922;2023-04-30T03:52:01;15.63;;;8.50;;
2404;SDS011;1213;43.206;27.922;2023-04-30T03:54:27;13.10;;;9.07;;
2404;SDS011;1213;43.206;27.922;2023-04-30T03:56:52;11.20;;;8.07;;
2404;SDS011;1213;43.206;27.922;2023-04-30T03:59:18;14.37;;;8.87;;
2404;SDS011;1213;43.206;27.922;2023-04-30T04:01:43;16.50;;;7.60;;
2404;SDS011;1213;43.206;27.922;2023-04-30T04:04:08;12.00;;;8.23;;
2404;SDS011;1213;43.206;27.922;2023-04-30T04:06:34;11.73;;;8.37;;
2404;SDS011;1213;43.206;27.922;2023-04-30T04:08:59;12.17;;;6.70;;
2404;SDS011;1213;43.206;27.922;2023-04-30T04:11:25;11.03;;;6.57;;
2404;SDS011;1213;43.206;27.922;2023-04-30T04:13:50;19.03;;;7.07;;
2404;SDS011;1213;43.206;27.922;2023-04-30T04:16:15;16.57;;;7.07;;
2404;SDS011;1213;43.206;27.922;2023-04-30T04:18:40;12.87;;;6.77;;
2404;SDS011;1213;43.206;27.922;2023-04-30T04:21:06;10.83;;;6.90;;
2404;SDS011;1213;43.206;27.922;2023-04-30T04:23:31;11.77;;;7.10;;
2404;SDS011;1213;43.206;27.922;2023-04-30T04:25:56;16.03;;;7.00;;
2404;SDS011;1213;43.206;27.922;2023-04-30T04:28:22;9.27;;;6.07;;
2404;SDS011;1213;43.206;27.922;2023-04-30T04:30:47;13.30;;;7.60;;
2404;SDS011;1213;43.206;27.922;2023-04-30T04:33:13;11.57;;;6.27;;
2404;SDS011;1213;43.206;27.922;2023-04-30T04:35:38;12.53;;;8.10;;
2404;SDS011;1213;43.206;27.922;2023-04-30T04:38:03;11.33;;;7.07;;
2404;SDS011;1213;43.206;27.922;2023-04-30T04:40:29;14.23;;;7.40;;
2404;SDS011;1213;43.206;27.922;2023-04-30T04:42:54;21.80;;;8.60;;
2404;SDS011;1213;43.206;27.922;2023-04-30T04:45:20;15.63;;;9.17;;
2404;SDS011;1213;43.206;27.922;2023-04-30T04:47:45;5.27;;;4.17;;
2404;SDS011;1213;43.206;27.922;2023-04-30T04:50:11;8.67;;;6.90;;
2404;SDS011;1213;43.206;27.922;2023-04-30T04:52:37;11.00;;;7.57;;
2404;SDS011;1213;43.206;27.922;2023-04-30T04:55:03;13.43;;;8.47;;
2404;SDS011;1213;43.206;27.922;2023-04-30T04:57:28;10.67;;;9.03;;
2404;SDS011;1213;43.206;27.922;2023-04-30T04:59:53;11.73;;;7.80;;
2404;SDS011;1213;43.206;27.922;2023-04-30T05:02:19;14.63;;;10.73;;
2404;SDS011;1213;43.206;27.922;2023-04-30T05:04:45;14.50;;;8.17;;
2404;SDS011;1213;43.206;27.922;2023-04-30T05:07:11;15.70;;;10.27;;
2404;SDS011;1213;43.206;27.922;2023-04-30T05:09:36;20.00;;;11.77;;
2404;SDS011;1213;43.206;27.922;2023-04-30T05:12:02;13.80;;;10.40;;
2404;SDS011;1213;43.206;27.922;2023-04-30T05:14:27;9.60;;;6.43;;
2404;SDS011;1213;43.206;27.922;2023-04-30T05:16:53;12.33;;;9.13;;
2404;SDS011;1213;43.206;27.922;2023-04-30T05:19:18;12.83;;;8.07;;
2404;SDS011;1213;43.206;27.922;2023-04-30T05:21:43;15.67;;;8.13;;
2404;SDS011;1213;43.206;27.922;2023-04-30T05:24:08;12.53;;;8.37;;
2404;SDS011;1213;43.206;27.922;2023-04-30T05:26:34;17.47;;;8.00;;
2404;SDS011;1213;43.206;27.922;2023-04-30T05:28:59;9.23;;;7.97;;
2404;SDS011;1213;43.206;27.922;2023-04-30T05:31:24;10.80;;;7.10;;
2404;SDS011;1213;43.206;27.922;2023-04-30T05:33:50;7.20;;;4.63;;
2404;SDS011;1213;43.206;27.922;2023-04-30T05:36:15;10.03;;;7.83;;
2404;SDS011;1213;43.206;27.922;2023-04-30T05:38:40;10.47;;;7.67;;
2404;SDS011;1213;43.206;27.922;2023-04-30T05:41:09;10.00;;;6.13;;
2404;SDS011;1213;43.206;27.922;2023-04-30T05:43:35;11.97;;;7.20;;
2404;SDS011;1213;43.206;27.922;2023-04-30T05:46:00;10.43;;;7.40;;
2404;SDS011;1213;43.206;27.922;2023-04-30T05:48:25;3.23;;;3.03;;
2404;SDS011;1213;43.206;27.922;2023-04-30T05:50:51;9.77;;;7.47;;
2404;SDS011;1213;43.206;27.922;2023-04-30T05:53:16;11.90;;;6.73;;
2404;SDS011;1213;43.206;27.922;2023-04-30T05:55:42;9.40;;;7.20;;
2404;SDS011;1213;43.206;27.922;2023-04-30T05:58:07;12.83;;;9.07;;
2404;SDS011;1213;43.206;27.922;2023-04-30T06:00:32;12.10;;;8.30;;
2404;SDS011;1213;43.206;27.922;2023-04-30T06:02:57;11.90;;;8.30;;
2404;SDS011;1213;43.206;27.922;2023-04-30T06:05:23;17.80;;;8.70;;
2404;SDS011;1213;43.206;27.922;2023-04-30T06:07:48;10.87;;;7.87;;
2404;SDS011;1213;43.206;27.922;2023-04-30T06:10:14;10.10;;;7.53;;
2404;SDS011;1213;43.206;27.922;2023-04-30T06:12:40;12.77;;;8.60;;
2404;SDS011;1213;43.206;27.922;2023-04-30T06:15:05;11.03;;;7.30;;
2404;SDS011;1213;43.206;27.922;2023-04-30T06:17:31;13.17;;;8.27;;
2404;SDS011;1213;43.206;27.922;2023-04-30T06:19:57;14.20;;;7.93;;
2404;SDS011;1213;43.206;27.922;2023-04-30T06:22:26;11.43;;;7.30;;
2404;SDS011;1213;43.206;27.922;2023-04-30T06:24:51;14.00;;;6.97;;
2404;SDS011;1213;43.206;27.922;2023-04-30T06:27:16;6.47;;;5.37;;
2404;SDS011;1213;43.206;27.922;2023-04-30T06:29:42;14.00;;;7.07;;
2404;SDS011;1213;43.206;27.922;2023-04-30T06:32:07;8.63;;;6.30;;
2404;SDS011;1213;43.206;27.922;2023-04-30T06:34:32;8.70;;;6.10;;
2404;SDS011;1213;43.206;27.922;2023-04-30T06:36:58;11.20;;;6.13;;
2404;SDS011;1213;43.206;27.922;2023-04-30T06:39:23;7.40;;;5.30;;
2404;SDS011;1213;43.206;27.922;2023-04-30T06:41:48;7.07;;;5.63;;
2404;SDS011;1213;43.206;27.922;2023-04-30T06:44:14;8.40;;;5.80;;
2404;SDS011;1213;43.206;27.922;2023-04-30T06:46:39;8.33;;;5.70;;
2404;SDS011;1213;43.206;27.922;2023-04-30T06:49:04;7.17;;;4.60;;
2404;SDS011;1213;43.206;27.922;2023-04-30T06:51:30;9.67;;;4.67;;
2404;SDS011;1213;43.206;27.922;2023-04-30T06:53:55;7.53;;;4.37;;
2404;SDS011;1213;43.206;27.922;2023-04-30T06:56:20;8.33;;;5.00;;
2404;SDS011;1213;43.206;27.922;2023-04-30T06:58:46;6.30;;;4.53;;
2404;SDS011;1213;43.206;27.922;2023-04-30T07:01:11;5.70;;;3.83;;
2404;SDS011;1213;43.206;27.922;2023-04-30T07:03:37;3.77;;;2.67;;
2404;SDS011;1213;43.206;27.922;2023-04-30T07:06:03;2.40;;;2.13;;
2404;SDS011;1213;43.206;27.922;2023-04-30T07:08:29;2.57;;;1.77;;
2404;SDS011;1213;43.206;27.922;2023-04-30T07:10:54;2.10;;;1.87;;
2404;SDS011;1213;43.206;27.922;2023-04-30T07:13:19;5.93;;;2.43;;
2404;SDS011;1213;43.206;27.922;2023-04-30T07:15:45;2.00;;;1.33;;
2404;SDS011;1213;43.206;27.922;2023-04-30T07:18:10;1.83;;;1.73;;
2404;SDS011;1213;43.206;27.922;2023-04-30T07:20:36;1.87;;;1.50;;
2404;SDS011;1213;43.206;27.922;2023-04-30T07:23:01;1.63;;;1.20;;
2404;SDS011;1213;43.206;27.922;2023-04-30T07:25:26;2.30;;;2.10;;
2404;SDS011;1213;43.206;27.922;2023-04-30T07:27:51;2.90;;;2.30;;
2404;SDS011;1213;43.206;27.922;2023-04-30T07:30:17;4.77;;;2.40;;
2404;SDS011;1213;43.206;27.922;2023-04-30T07:32:42;3.00;;;2.77;;
2404;SDS011;1213;43.206;27.922;2023-04-30T07:35:08;2.70;;;2.50;;
2404;SDS011;1213;43.206;27.922;2023-04-30T07:37:33;3.53;;;2.70;;
2404;SDS011;1213;43.206;27.922;2023-04-30T07:39:59;2.73;;;2.53;;
2404;SDS011;1213;43.206;27.922;2023-04-30T07:42:25;2.60;;;2.40;;
2404;SDS011;1213;43.206;27.922;2023-04-30T07:44:51;4.30;;;2.50;;
2404;SDS011;1213;43.206;27.922;2023-04-30T07:47:17;2.47;;;2.20;;
2404;SDS011;1213;43.206;27.922;2023-04-30T07:49:42;4.90;;;2.40;;
2404;SDS011;1213;43.206;27.922;2023-04-30T07:52:07;4.77;;;2.40;;
2404;SDS011;1213;43.206;27.922;2023-04-30T07:54:36;2.23;;;2.07;;
2404;SDS011;1213;43.206;27.922;2023-04-30T07:57:03;2.60;;;2.37;;
2404;SDS011;1213;43.206;27.922;2023-04-30T07:59:28;5.60;;;2.40;;
2404;SDS011;1213;43.206;27.922;2023-04-30T08:01:53;2.70;;;2.50;;
2404;SDS011;1213;43.206;27.922;2023-04-30T08:04:19;5.23;;;1.83;;
2404;SDS011;1213;43.206;27.922;2023-04-30T08:06:44;2.20;;;2.00;;
2404;SDS011;1213;43.206;27.922;2023-04-30T08:09:09;2.97;;;2.63;;
2404;SDS011;1213;43.206;27.922;2023-04-30T08:11:35;3.00;;;2.60;;
2404;SDS011;1213;43.206;27.922;2023-04-30T08:14:00;4.17;;;1.97;;
2404;SDS011;1213;43.206;27.922;2023-04-30T08:16:26;3.30;;;2.70;;
2404;SDS011;1213;43.206;27.922;2023-04-30T08:18:51;2.20;;;2.03;;
2404;SDS011;1213;43.206;27.922;2023-04-30T08:21:16;2.33;;;2.17;;
2404;SDS011;1213;43.206;27.922;2023-04-30T08:23:42;3.47;;;2.10;;
2404;SDS011;1213;43.206;27.922;2023-04-30T08:26:07;2.33;;;2.10;;
2404;SDS011;1213;43.206;27.922;2023-04-30T08:28:35;4.00;;;2.70;;
2404;SDS011;1213;43.206;27.922;2023-04-30T08:31:00;3.50;;;3.20;;
2404;SDS011;1213;43.206;27.922;2023-04-30T08:33:26;4.70;;;2.23;;
2404;SDS011;1213;43.206;27.922;2023-04-30T08:35:51;5.17;;;2.50;;
2404;SDS011;1213;43.206;27.922;2023-04-30T08:38:16;2.30;;;2.00;;
2404;SDS011;1213;43.206;27.922;2023-04-30T08:40:42;2.60;;;2.40;;
2404;SDS011;1213;43.206;27.922;2023-04-30T08:43:11;3.60;;;3.30;;
2404;SDS011;1213;43.206;27.922;2023-04-30T08:45:37;4.60;;;2.50;;
2404;SDS011;1213;43.206;27.922;2023-04-30T08:48:03;2.47;;;2.20;;
2404;SDS011;1213;43.206;27.922;2023-04-30T08:50:28;4.27;;;2.47;;
2404;SDS011;1213;43.206;27.922;2023-04-30T08:52:54;5.00;;;2.77;;
2404;SDS011;1213;43.206;27.922;2023-04-30T08:55:20;6.33;;;2.90;;
2404;SDS011;1213;43.206;27.922;2023-04-30T08:57:45;3.37;;;2.67;;
2404;SDS011;1213;43.206;27.922;2023-04-30T09:00:10;3.63;;;3.00;;
2404;SDS011;1213;43.206;27.922;2023-04-30T09:02:39;2.93;;;2.60;;
2404;SDS011;1213;43.206;27.922;2023-04-30T09:05:10;2.40;;;2.20;;
2404;SDS011;1213;43.206;27.922;2023-04-30T09:07:35;3.90;;;2.37;;
2404;SDS011;1213;43.206;27.922;2023-04-30T09:10:02;4.53;;;2.30;;
2404;SDS011;1213;43.206;27.922;2023-04-30T09:12:28;3.57;;;2.73;;
2404;SDS011;1213;43.206;27.922;2023-04-30T09:15:04;5.20;;;2.43;;
2404;SDS011;1213;43.206;27.922;2023-04-30T09:17:30;7.83;;;2.57;;
2404;SDS011;1213;43.206;27.922;2023-04-30T09:20:12;3.93;;;1.77;;
2404;SDS011;1213;43.206;27.922;2023-04-30T09:22:38;5.07;;;2.53;;
2404;SDS011;1213;43.206;27.922;2023-04-30T09:25:04;1.83;;;1.70;;
2404;SDS011;1213;43.206;27.922;2023-04-30T09:27:30;3.17;;;2.80;;
2404;SDS011;1213;43.206;27.922;2023-04-30T09:29:58;3.20;;;2.67;;
2404;SDS011;1213;43.206;27.922;2023-04-30T09:32:24;2.57;;;2.27;;
2404;SDS011;1213;43.206;27.922;2023-04-30T09:34:49;2.60;;;2.40;;
2404;SDS011;1213;43.206;27.922;2023-04-30T09:37:15;5.20;;;2.40;;
2404;SDS011;1213;43.206;27.922;2023-04-30T09:42:12;2.50;;;2.30;;
2404;SDS011;1213;43.206;27.922;2023-04-30T09:44:38;2.60;;;2.40;;
2404;SDS011;1213;43.206;27.922;2023-04-30T09:47:03;3.97;;;2.60;;
2404;SDS011;1213;43.206;27.922;2023-04-30T09:49:28;7.97;;;2.97;;
2404;SDS011;1213;43.206;27.922;2023-04-30T09:54:21;4.63;;;2.83;;
2404;SDS011;1213;43.206;27.922;2023-04-30T09:56:47;3.43;;;3.03;;
2404;SDS011;1213;43.206;27.922;2023-04-30T09:59:13;2.90;;;2.20;;
2404;SDS011;1213;43.206;27.922;2023-04-30T10:01:38;6.23;;;2.77;;
2404;SDS011;1213;43.206;27.922;2023-04-30T10:04:04;3.07;;;2.40;;
2404;SDS011;1213;43.206;27.922;2023-04-30T10:06:30;2.47;;;1.97;;
2404;SDS011;1213;43.206;27.922;2023-04-30T10:08:59;2.60;;;2.27;;
2404;SDS011;1213;43.206;27.922;2023-04-30T10:11:27;3.63;;;2.00;;
2404;SDS011;1213;43.206;27.922;2023-04-30T10:13:57;2.37;;;2.00;;
2404;SDS011;1213;43.206;27.922;2023-04-30T10:18:54;4.70;;;2.20;;
2404;SDS011;1213;43.206;27.922;2023-04-30T10:21:23;1.97;;;1.80;;
2404;SDS011;1213;43.206;27.922;2023-04-30T10:23:49;2.80;;;2.50;;
2404;SDS011;1213;43.206;27.922;2023-04-30T10:26:14;2.80;;;2.27;;
2404;SDS011;1213;43.206;27.922;2023-04-30T10:28:41;2.33;;;2.13;;
2404;SDS011;1213;43.206;27.922;2023-04-30T10:31:06;2.67;;;2.47;;
2404;SDS011;1213;43.206;27.922;2023-04-30T10:33:45;2.20;;;2.00;;
2404;SDS011;1213;43.206;27.922;2023-04-30T10:36:17;3.03;;;2.67;;
2404;SDS011;1213;43.206;27.922;2023-04-30T10:38:45;7.33;;;2.70;;
2404;SDS011;1213;43.206;27.922;2023-04-30T10:41:11;4.20;;;2.90;;
2404;SDS011;1213;43.206;27.922;2023-04-30T10:43:36;2.30;;;2.10;;
2404;SDS011;1213;43.206;27.922;2023-04-30T10:46:01;2.50;;;2.30;;
2404;SDS011;1213;43.206;27.922;2023-04-30T10:48:28;4.13;;;2.50;;
2404;SDS011;1213;43.206;27.922;2023-04-30T10:50:55;2.03;;;1.93;;
2404;SDS011;1213;43.206;27.922;2023-04-30T10:53:21;3.97;;;2.70;;
2404;SDS011;1213;43.206;27.922;2023-04-30T10:56:04;3.63;;;2.50;;
2404;SDS011;1213;43.206;27.922;2023-04-30T10:58:39;3.33;;;2.47;;
2404;SDS011;1213;43.206;27.922;2023-04-30T11:01:14;2.57;;;2.37;;
2404;SDS011;1213;43.206;27.922;2023-04-30T11:03:42;2.37;;;2.27;;
2404;SDS011;1213;43.206;27.922;2023-04-30T11:06:27;9.07;;;2.90;;
2404;SDS011;1213;43.206;27.922;2023-04-30T11:09:11;4.07;;;2.00;;
2404;SDS011;1213;43.206;27.922;2023-04-30T11:11:37;2.40;;;2.20;;
2404;SDS011;1213;43.206;27.922;2023-04-30T11:14:02;2.63;;;2.30;;
2404;SDS011;1213;43.206;27.922;2023-04-30T11:16:33;5.57;;;3.30;;
2404;SDS011;1213;43.206;27.922;2023-04-30T11:19:31;3.80;;;2.27;;
2404;SDS011;1213;43.206;27.922;2023-04-30T11:27:11;2.67;;;2.40;;
2404;SDS011;1213;43.206;27.922;2023-04-30T11:29:37;4.63;;;2.30;;
2404;SDS011;1213;43.206;27.922;2023-04-30T11:32:03;2.53;;;2.33;;
2404;SDS011;1213;43.206;27.922;2023-04-30T11:34:28;5.30;;;2.20;;
2404;SDS011;1213;43.206;27.922;2023-04-30T11:36:54;2.40;;;2.20;;
2404;SDS011;1213;43.206;27.922;2023-04-30T11:39:22;6.87;;;2.20;;
2404;SDS011;1213;43.206;27.922;2023-04-30T11:41:48;3.03;;;2.43;;
2404;SDS011;1213;43.206;27.922;2023-04-30T11:44:26;2.80;;;2.60;;
2404;SDS011;1213;43.206;27.922;2023-04-30T11:46:51;2.77;;;2.57;;
2404;SDS011;1213;43.206;27.922;2023-04-30T11:49:19;6.23;;;2.60;;
2404;SDS011;1213;43.206;27.922;2023-04-30T11:51:47;4.93;;;2.17;;
2404;SDS011;1213;43.206;27.922;2023-04-30T11:54:12;2.00;;;1.90;;
2404;SDS011;1213;43.206;27.922;2023-04-30T11:56:38;2.60;;;2.20;;
2404;SDS011;1213;43.206;27.922;2023-04-30T11:59:10;3.80;;;2.87;;
2404;SDS011;1213;43.206;27.922;2023-04-30T12:01:36;4.17;;;2.33;;
2404;SDS011;1213;43.206;27.922;2023-04-30T12:04:02;5.57;;;2.40;;
2404;SDS011;1213;43.206;27.922;2023-04-30T12:06:29;2.60;;;2.30;;
2404;SDS011;1213;43.206;27.922;2023-04-30T12:08:55;3.57;;;2.57;;
2404;SDS011;1213;43.206;27.922;2023-04-30T12:11:28;3.17;;;2.97;;
2404;SDS011;1213;43.206;27.922;2023-04-30T12:16:20;2.83;;;2.30;;
2404;SDS011;1213;43.206;27.922;2023-04-30T12:18:46;2.70;;;2.23;;
2404;SDS011;1213;43.206;27.922;2023-04-30T12:21:12;3.70;;;2.63;;
2404;SDS011;1213;43.206;27.922;2023-04-30T12:23:37;2.20;;;2.00;;
2404;SDS011;1213;43.206;27.922;2023-04-30T12:26:03;2.77;;;2.37;;
2404;SDS011;1213;43.206;27.922;2023-04-30T12:28:28;2.43;;;2.23;;
2404;SDS011;1213;43.206;27.922;2023-04-30T12:30:53;2.40;;;2.03;;
2404;SDS011;1213;43.206;27.922;2023-04-30T12:33:19;8.10;;;5.30;;
2404;SDS011;1213;43.206;27.922;2023-04-30T12:35:45;6.50;;;3.10;;
2404;SDS011;1213;43.206;27.922;2023-04-30T12:38:15;5.77;;;3.10;;
2404;SDS011;1213;43.206;27.922;2023-04-30T12:40:45;3.20;;;2.70;;
2404;SDS011;1213;43.206;27.922;2023-04-30T12:43:14;6.53;;;3.30;;
2404;SDS011;1213;43.206;27.922;2023-04-30T12:45:52;5.87;;;3.50;;
2404;SDS011;1213;43.206;27.922;2023-04-30T12:48:22;3.30;;;3.00;;
2404;SDS011;1213;43.206;27.922;2023-04-30T12:50:55;4.80;;;4.00;;
2404;SDS011;1213;43.206;27.922;2023-04-30T12:53:22;3.67;;;3.30;;
2404;SDS011;1213;43.206;27.922;2023-04-30T12:56:07;6.93;;;2.90;;
2404;SDS011;1213;43.206;27.922;2023-04-30T12:58:33;3.27;;;2.60;;
2404;SDS011;1213;43.206;27.922;2023-04-30T13:00:59;4.40;;;3.20;;
2404;SDS011;1213;43.206;27.922;2023-04-30T13:03:24;4.70;;;3.80;;
2404;SDS011;1213;43.206;27.922;2023-04-30T13:05:50;4.50;;;2.97;;
2404;SDS011;1213;43.206;27.922;2023-04-30T13:08:16;3.97;;;3.40;;
2404;SDS011;1213;43.206;27.922;2023-04-30T13:10:42;4.30;;;4.00;;
2404;SDS011;1213;43.206;27.922;2023-04-30T13:13:08;4.77;;;3.57;;
2404;SDS011;1213;43.206;27.922;2023-04-30T13:15:33;4.10;;;3.80;;
2404;SDS011;1213;43.206;27.922;2023-04-30T13:17:59;2.97;;;2.77;;
2404;SDS011;1213;43.206;27.922;2023-04-30T13:20:24;3.60;;;3.30;;
2404;SDS011;1213;43.206;27.922;2023-04-30T13:22:50;5.60;;;3.90;;
2404;SDS011;1213;43.206;27.922;2023-04-30T13:25:16;4.43;;;3.83;;
2404;SDS011;1213;43.206;27.922;2023-04-30T13:27:41;5.50;;;3.67;;
2404;SDS011;1213;43.206;27.922;2023-04-30T13:30:07;5.20;;;3.70;;
2404;SDS011;1213;43.206;27.922;2023-04-30T13:32:33;3.50;;;3.20;;
2404;SDS011;1213;43.206;27.922;2023-04-30T13:34:59;4.20;;;3.80;;
2404;SDS011;1213;43.206;27.922;2023-04-30T13:37:25;3.87;;;3.57;;
2404;SDS011;1213;43.206;27.922;2023-04-30T13:39:50;3.60;;;3.40;;
2404;SDS011;1213;43.206;27.922;2023-04-30T13:42:16;3.60;;;3.30;;
2404;SDS011;1213;43.206;27.922;2023-04-30T13:44:41;5.20;;;3.80;;
2404;SDS011;1213;43.206;27.922;2023-04-30T13:47:06;4.20;;;3.43;;
2404;SDS011;1213;43.206;27.922;2023-04-30T13:49:33;4.60;;;4.07;;
2404;SDS011;1213;43.206;27.922;2023-04-30T13:52:04;6.10;;;4.90;;
2404;SDS011;1213;43.206;27.922;2023-04-30T13:54:29;6.43;;;3.93;;
2404;SDS011;1213;43.206;27.922;2023-04-30T13:56:55;7.23;;;4.00;;
2404;SDS011;1213;43.206;27.922;2023-04-30T13:59:23;3.97;;;3.67;;
2404;SDS011;1213;43.206;27.922;2023-04-30T14:01:49;3.73;;;3.43;;
2404;SDS011;1213;43.206;27.922;2023-04-30T14:04:14;3.93;;;3.60;;
2404;SDS011;1213;43.206;27.922;2023-04-30T14:06:39;8.20;;;3.07;;
2404;SDS011;1213;43.206;27.922;2023-04-30T14:09:05;3.40;;;3.10;;
2404;SDS011;1213;43.206;27.922;2023-04-30T14:11:31;3.53;;;3.20;;
2404;SDS011;1213;43.206;27.922;2023-04-30T14:13:56;3.87;;;3.47;;
2404;SDS011;1213;43.206;27.922;2023-04-30T14:16:23;6.00;;;3.20;;
2404;SDS011;1213;43.206;27.922;2023-04-30T14:18:49;5.50;;;3.17;;
2404;SDS011;1213;43.206;27.922;2023-04-30T14:21:14;3.27;;;2.83;;
2404;SDS011;1213;43.206;27.922;2023-04-30T14:23:41;5.37;;;2.57;;
2404;SDS011;1213;43.206;27.922;2023-04-30T14:26:10;8.00;;;3.13;;
2404;SDS011;1213;43.206;27.922;2023-04-30T14:28:35;5.20;;;3.03;;
2404;SDS011;1213;43.206;27.922;2023-04-30T14:31:01;4.27;;;3.23;;
2404;SDS011;1213;43.206;27.922;2023-04-30T14:33:26;5.40;;;4.20;;
2404;SDS011;1213;43.206;27.922;2023-04-30T14:35:51;5.50;;;3.70;;
2404;SDS011;1213;43.206;27.922;2023-04-30T14:38:17;7.23;;;3.37;;
2404;SDS011;1213;43.206;27.922;2023-04-30T14:40:42;2.90;;;2.70;;
2404;SDS011;1213;43.206;27.922;2023-04-30T14:43:07;5.23;;;3.50;;
2404;SDS011;1213;43.206;27.922;2023-04-30T14:45:32;6.43;;;2.97;;
2404;SDS011;1213;43.206;27.922;2023-04-30T14:47:58;8.53;;;3.20;;
2404;SDS011;1213;43.206;27.922;2023-04-30T14:50:23;3.90;;;3.10;;
2404;SDS011;1213;43.206;27.922;2023-04-30T14:52:49;6.33;;;5.03;;
2404;SDS011;1213;43.206;27.922;2023-04-30T14:55:14;3.87;;;3.20;;
2404;SDS011;1213;43.206;27.922;2023-04-30T14:57:39;3.40;;;3.10;;
2404;SDS011;1213;43.206;27.922;2023-04-30T15:00:05;3.10;;;2.80;;
2404;SDS011;1213;43.206;27.922;2023-04-30T15:02:32;5.77;;;4.77;;
2404;SDS011;1213;43.206;27.922;2023-04-30T15:04:57;5.50;;;4.37;;
2404;SDS011;1213;43.206;27.922;2023-04-30T15:07:22;4.40;;;3.20;;
2404;SDS011;1213;43.206;27.922;2023-04-30T15:09:47;4.73;;;2.60;;
2404;SDS011;1213;43.206;27.922;2023-04-30T15:12:13;4.30;;;2.87;;
2404;SDS011;1213;43.206;27.922;2023-04-30T15:14:38;4.37;;;2.90;;
2404;SDS011;1213;43.206;27.922;2023-04-30T15:17:03;4.83;;;3.20;;
2404;SDS011;1213;43.206;27.922;2023-04-30T15:19:29;3.20;;;2.90;;
2404;SDS011;1213;43.206;27.922;2023-04-30T15:21:55;6.40;;;2.63;;
2404;SDS011;1213;43.206;27.922;2023-04-30T15:24:20;3.60;;;3.30;;
2404;SDS011;1213;43.206;27.922;2023-04-30T15:26:46;3.23;;;2.70;;